createdAt,value
2022-10-03T00:03:25.396Z,9.20
2022-10-03T00:10:58.887Z,9.10
2022-10-03T00:18:13.073Z,8.90
2022-10-03T00:25:39.382Z,8.80
2022-10-03T00:33:06.377Z,8.70
2022-10-03T00:40:19.930Z,8.60
2022-10-03T00:48:05.092Z,8.50
2022-10-03T00:55:32.100Z,8.40
2022-10-03T01:02:42.672Z,8.40
2022-10-03T01:10:17.044Z,8.40
2022-10-03T01:17:36.146Z,8.30
2022-10-03T01:25:10.369Z,8.30
2022-10-03T01:32:38.623Z,8.20
2022-10-03T01:39:59.856Z,8.20
2022-10-03T01:47:24.360Z,8.20
2022-10-03T01:54:50.791Z,8.10
2022-10-03T02:01:58.291Z,8.10
2022-10-03T02:09:12.460Z,8.00
2022-10-03T02:16:43.464Z,7.90
2022-10-03T02:23:46.077Z,7.90
2022-10-03T02:31:06.344Z,7.80
2022-10-03T02:38:48.641Z,7.80
2022-10-03T02:46:34.111Z,7.70
2022-10-03T02:54:06.179Z,7.70
2022-10-03T03:01:39.655Z,7.60
2022-10-03T03:09:07.178Z,7.60
2022-10-03T03:16:33.470Z,7.50
2022-10-03T03:23:59.707Z,7.40
2022-10-03T03:31:17.760Z,7.40
2022-10-03T03:38:53.729Z,7.30
2022-10-03T03:46:19.465Z,7.30
2022-10-03T03:53:50.642Z,7.20
2022-10-03T04:01:19.256Z,7.10
2022-10-03T04:08:38.622Z,7.20
2022-10-03T04:15:59.588Z,7.40
2022-10-03T04:23:25.445Z,7.50
2022-10-03T04:31:02.416Z,7.60
2022-10-03T04:38:38.729Z,7.60
2022-10-03T04:45:45.515Z,7.60
2022-10-03T04:53:16.458Z,7.60
2022-10-03T05:00:30.055Z,7.50
2022-10-03T05:07:55.011Z,7.40
2022-10-03T05:15:10.856Z,7.40
2022-10-03T05:22:35.640Z,7.50
2022-10-03T05:29:42.281Z,7.60
2022-10-03T05:37:01.655Z,7.70
2022-10-03T05:44:12.743Z,7.70
2022-10-03T05:51:40.485Z,7.70
2022-10-03T05:59:16.585Z,7.80
2022-10-03T06:06:24.584Z,7.90
2022-10-03T06:13:37.807Z,8.00
2022-10-03T06:21:07.434Z,8.00
2022-10-03T06:28:37.540Z,8.10
2022-10-03T06:36:17.195Z,8.20
2022-10-03T06:43:42.468Z,8.40
2022-10-03T06:50:46.899Z,8.50
2022-10-03T06:58:07.100Z,8.60
2022-10-03T07:05:20.805Z,8.80
2022-10-03T07:12:44.773Z,8.90
2022-10-03T07:20:02.184Z,9.10
2022-10-03T07:27:36.783Z,9.30
2022-10-03T07:35:24.137Z,9.50
2022-10-03T07:43:00.033Z,9.70
2022-10-03T07:50:23.480Z,9.90
2022-10-03T07:57:57.523Z,10.20
2022-10-03T08:05:00.300Z,10.40
2022-10-03T08:12:28.842Z,10.50
2022-10-03T08:20:01.379Z,10.70
2022-10-03T08:27:28.635Z,11.00
2022-10-03T08:34:50.228Z,11.30
2022-10-03T08:42:10.770Z,11.50
2022-10-03T08:49:11.994Z,11.70
2022-10-03T08:56:15.127Z,11.90
2022-10-03T09:03:43.187Z,12.10
2022-10-03T09:11:20.934Z,12.30
2022-10-03T09:18:30.060Z,12.40
2022-10-03T09:25:57.768Z,12.50
2022-10-03T09:33:45.706Z,12.70
2022-10-03T09:41:19.681Z,12.90
2022-10-03T09:48:19.864Z,13.00
2022-10-03T09:55:38.821Z,13.20
2022-10-03T10:03:12.423Z,13.40
2022-10-03T10:10:37.357Z,13.60
2022-10-03T10:18:09.497Z,13.80
2022-10-03T10:25:28.677Z,14.10
2022-10-03T10:32:40.965Z,14.30
2022-10-03T10:39:53.870Z,14.60
2022-10-03T10:47:15.502Z,14.70
2022-10-03T10:54:21.540Z,14.90
2022-10-03T11:01:27.904Z,15.10
2022-10-03T11:08:53.251Z,15.30
2022-10-03T11:16:27.743Z,15.50
2022-10-03T11:23:47.348Z,15.70
2022-10-03T11:31:25.544Z,16.00
2022-10-03T11:38:38.571Z,15.90
2022-10-03T11:45:59.644Z,15.90
2022-10-03T11:53:12.369Z,16.10
2022-10-03T12:00:20.216Z,16.10
2022-10-03T12:08:18.256Z,16.20
2022-10-03T12:15:27.321Z,16.30
2022-10-03T12:22:49.612Z,16.40
2022-10-03T12:29:58.684Z,16.70
2022-10-03T12:37:38.834Z,16.80
2022-10-03T12:45:02.366Z,16.80
2022-10-03T12:52:26.013Z,17.00
2022-10-03T12:59:35.368Z,17.60
2022-10-03T13:07:09.460Z,18.00
2022-10-03T13:14:32.959Z,18.00
2022-10-03T13:22:08.142Z,17.70
2022-10-03T13:29:45.010Z,17.60
2022-10-03T13:37:33.590Z,17.50
2022-10-03T13:44:55.445Z,17.80
2022-10-03T13:52:05.150Z,18.50
2022-10-03T13:59:25.360Z,18.80
2022-10-03T14:06:55.251Z,19.60
2022-10-03T14:14:05.440Z,20.60
2022-10-03T14:21:46.892Z,19.80
2022-10-03T14:29:13.340Z,19.30
2022-10-03T14:36:44.821Z,18.90
2022-10-03T14:43:59.962Z,18.80
2022-10-03T14:51:14.003Z,18.60
2022-10-03T14:58:22.027Z,18.20
2022-10-03T15:05:34.966Z,18.10
2022-10-03T15:12:38.037Z,18.10
2022-10-03T15:19:47.758Z,18.00
2022-10-03T15:27:03.110Z,17.90
2022-10-03T15:34:16.131Z,17.80
2022-10-03T15:41:21.864Z,17.60
2022-10-03T15:48:23.453Z,17.50
2022-10-03T15:55:34.561Z,17.40
2022-10-03T16:02:49.948Z,17.30
2022-10-03T16:09:56.154Z,17.20
2022-10-03T16:17:15.054Z,17.10
2022-10-03T16:24:34.977Z,17.00
2022-10-03T16:31:46.012Z,16.90
2022-10-03T16:39:04.503Z,16.80
2022-10-03T16:46:21.389Z,16.70
2022-10-03T16:53:22.316Z,16.60
2022-10-03T17:00:42.321Z,16.30
2022-10-03T17:07:50.523Z,16.10
2022-10-03T17:14:53.993Z,16.00
2022-10-03T17:21:58.941Z,15.80
2022-10-03T17:29:23.944Z,15.60
2022-10-03T17:36:57.606Z,15.40
2022-10-03T17:44:34.920Z,15.20
2022-10-03T17:51:38.401Z,15.10
2022-10-03T17:58:47.825Z,14.90
2022-10-03T18:05:52.644Z,14.60
2022-10-03T18:12:57.310Z,14.40
2022-10-03T18:20:03.835Z,14.20
2022-10-03T18:27:30.274Z,14.10
2022-10-03T18:34:35.979Z,13.90
2022-10-03T18:41:45.019Z,13.60
2022-10-03T18:49:32.825Z,13.60
2022-10-03T18:56:25.192Z,13.60
2022-10-03T19:03:39.739Z,13.40
2022-10-03T19:10:48.218Z,13.30
2022-10-03T19:17:48.438Z,13.30
2022-10-03T19:24:59.244Z,13.20
2022-10-03T19:32:08.367Z,13.20
2022-10-03T19:39:15.432Z,13.20
2022-10-03T19:46:24.784Z,13.10
2022-10-03T19:53:25.043Z,13.00
2022-10-03T20:00:36.677Z,12.90
2022-10-03T20:07:51.407Z,12.90
2022-10-03T20:14:52.427Z,12.80
2022-10-03T20:21:57.440Z,12.70
2022-10-03T20:29:09.360Z,12.60
2022-10-03T20:36:22.954Z,12.50
2022-10-03T20:43:29.653Z,12.40
2022-10-03T20:50:46.543Z,12.20
2022-10-03T20:57:58.735Z,12.10
2022-10-03T21:05:07.237Z,12.10
2022-10-03T21:12:15.500Z,11.80
2022-10-03T21:19:24.381Z,11.70
2022-10-03T21:26:30.294Z,11.60
2022-10-03T21:33:48.938Z,11.40
2022-10-03T21:40:52.247Z,11.20
2022-10-03T21:47:58.428Z,11.00
2022-10-03T21:55:33.561Z,10.90
2022-10-03T22:02:55.442Z,10.90
2022-10-03T22:09:56.650Z,10.80
2022-10-03T22:17:02.986Z,10.60
2022-10-03T22:24:13.570Z,10.60
2022-10-03T22:31:32.098Z,10.50
2022-10-03T22:38:36.177Z,10.40
2022-10-03T22:45:42.422Z,10.40
2022-10-03T22:52:48.137Z,10.30
2022-10-03T23:00:17.600Z,10.10
2022-10-03T23:07:33.498Z,10.00
2022-10-03T23:14:37.538Z,9.90
2022-10-03T23:21:49.413Z,9.80
2022-10-03T23:29:11.081Z,9.80
2022-10-03T23:36:21.357Z,9.80
2022-10-03T23:43:42.181Z,9.70
2022-10-03T23:50:59.465Z,9.70
2022-10-03T23:58:00.040Z,9.60
